Time;durP1;ratioP1;P1;durP2;ratioP2;P2;SDS_P1;SDS_P2;PMS_P1;PMS_P2;Temp;Humidity;BMP_temperature;BMP_pressure;BME280_temperature;BME280_humidity;BME280_pressure;Samples;Min_cycle;Max_cycle;Signal;HPM_P1;HPM_P2
2024/01/23 00:00:48;;;;;;;29.63;4.72;;;9.40;99.90;;;;;;5030520;28;20025;-76
2024/01/23 00:03:14;;;;;;;29.00;5.60;;;9.40;99.90;;;;;;5034419;28;20044;-76
2024/01/23 00:05:39;;;;;;;30.67;5.30;;;9.40;99.90;;;;;;5034322;28;20072;-76
2024/01/23 00:08:05;;;;;;;21.27;5.05;;;9.30;99.90;;;;;;5032830;28;20021;-74
2024/01/23 00:10:31;;;;;;;32.97;5.68;;;9.40;99.90;;;;;;5036612;28;20108;-77
2024/01/23 00:12:57;;;;;;;30.15;4.60;;;9.30;99.90;;;;;;5033031;28;20025;-76
2024/01/23 00:15:23;;;;;;;25.27;4.75;;;9.40;99.90;;;;;;5031072;28;20076;-76
2024/01/23 00:17:48;;;;;;;29.83;5.70;;;9.40;99.90;;;;;;5031665;28;20116;-76
2024/01/23 00:20:14;;;;;;;24.92;4.80;;;9.40;99.90;;;;;;5031908;28;20580;-76
2024/01/23 00:22:40;;;;;;;30.67;5.20;;;9.40;99.90;;;;;;5032101;28;20041;-77
2024/01/23 00:25:06;;;;;;;19.25;4.82;;;9.30;99.90;;;;;;5031689;28;20068;-77
2024/01/23 00:27:31;;;;;;;30.38;4.72;;;9.30;99.90;;;;;;5032184;28;20030;-76
2024/01/23 00:29:57;;;;;;;28.95;4.68;;;9.40;99.90;;;;;;5031057;28;20034;-77
2024/01/23 00:32:30;;;;;;;29.27;5.28;;;9.30;99.90;;;;;;5035131;28;20439;-76
2024/01/23 00:34:56;;;;;;;19.55;4.25;;;9.30;99.90;;;;;;5032192;28;20545;-75
2024/01/23 00:37:22;;;;;;;25.23;4.55;;;9.30;99.90;;;;;;5029901;28;20037;-74
2024/01/23 00:39:48;;;;;;;30.27;5.10;;;9.20;99.90;;;;;;5032342;28;20536;-77
2024/01/23 00:42:14;;;;;;;24.15;4.05;;;9.20;99.90;;;;;;5034296;28;20057;-77
2024/01/23 00:44:39;;;;;;;25.25;4.90;;;9.20;99.90;;;;;;5034007;28;20413;-76
2024/01/23 00:47:05;;;;;;;18.27;4.75;;;9.20;99.90;;;;;;5034431;28;20018;-76
2024/01/23 00:49:31;;;;;;;29.95;5.20;;;9.30;99.90;;;;;;5032007;28;20029;-75
2024/01/23 00:51:57;;;;;;;25.23;4.63;;;9.30;99.90;;;;;;5033994;28;20040;-76
2024/01/23 00:54:22;;;;;;;25.73;5.55;;;9.30;99.90;;;;;;5032567;28;21594;-76
2024/01/23 00:56:48;;;;;;;27.65;5.05;;;9.30;99.90;;;;;;5032234;28;20033;-77
2024/01/23 00:59:14;;;;;;;23.75;4.60;;;9.30;99.90;;;;;;5035152;28;20386;-77
2024/01/23 01:01:39;;;;;;;19.38;3.85;;;9.30;99.90;;;;;;5035010;28;20396;-77
2024/01/23 01:04:05;;;;;;;29.42;4.57;;;9.40;99.90;;;;;;5032141;28;20032;-77
2024/01/23 01:06:31;;;;;;;24.10;4.78;;;9.30;99.90;;;;;;5028567;28;20509;-77
2024/01/23 01:08:58;;;;;;;22.65;4.22;;;9.30;99.90;;;;;;5032139;28;20113;-77
2024/01/23 01:11:24;;;;;;;27.38;4.07;;;9.40;99.90;;;;;;5030611;28;20037;-77
2024/01/23 01:13:50;;;;;;;27.63;4.47;;;9.40;99.90;;;;;;5034807;28;20483;-75
2024/01/23 01:16:15;;;;;;;23.15;4.32;;;9.40;99.90;;;;;;5036277;28;20027;-76
2024/01/23 01:18:41;;;;;;;17.73;3.55;;;9.30;99.90;;;;;;5034364;28;20437;-76
2024/01/23 01:21:07;;;;;;;18.30;4.30;;;9.30;99.90;;;;;;5033183;28;20021;-77
2024/01/23 01:23:34;;;;;;;18.52;3.45;;;9.30;99.90;;;;;;5031809;28;20041;-76
2024/01/23 01:26:01;;;;;;;25.77;5.15;;;9.20;99.90;;;;;;5030315;28;20029;-76
2024/01/23 01:28:27;;;;;;;23.73;3.78;;;9.30;99.90;;;;;;5029670;28;20036;-76
2024/01/23 01:30:53;;;;;;;24.48;3.67;;;9.20;99.90;;;;;;5030686;28;20056;-77
2024/01/23 01:33:19;;;;;;;23.45;4.10;;;9.20;99.90;;;;;;5030850;28;20091;-76
2024/01/23 01:35:45;;;;;;;17.95;4.20;;;9.20;99.90;;;;;;5031086;28;20021;-76
2024/01/23 01:38:11;;;;;;;26.90;4.82;;;9.20;99.90;;;;;;5030386;28;20554;-77
2024/01/23 01:40:37;;;;;;;17.83;3.58;;;9.10;99.90;;;;;;5035199;28;20041;-77
2024/01/23 01:43:02;;;;;;;20.02;3.47;;;9.10;99.90;;;;;;5029800;28;20065;-77
2024/01/23 01:45:28;;;;;;;21.77;4.00;;;9.10;99.90;;;;;;5029725;28;20048;-77
2024/01/23 01:47:56;;;;;;;19.92;3.53;;;9.10;99.90;;;;;;5030785;28;20482;-77
2024/01/23 01:50:22;;;;;;;15.85;3.50;;;9.10;99.90;;;;;;5034109;28;20100;-76
2024/01/23 01:52:49;;;;;;;14.43;3.45;;;9.00;99.90;;;;;;5029394;28;20106;-77
2024/01/23 01:55:15;;;;;;;18.38;3.50;;;9.00;99.90;;;;;;5029371;28;20087;-77
2024/01/23 01:57:41;;;;;;;15.80;3.65;;;8.90;99.90;;;;;;5036230;28;20363;-77
2024/01/23 02:00:08;;;;;;;22.33;3.80;;;8.90;99.90;;;;;;5029329;28;20013;-77
2024/01/23 02:02:40;;;;;;;17.98;3.55;;;8.80;99.90;;;;;;5030899;28;20044;-77
2024/01/23 02:05:05;;;;;;;17.63;3.65;;;8.90;99.90;;;;;;5029741;28;20048;-77
2024/01/23 02:07:33;;;;;;;19.20;4.22;;;8.90;99.90;;;;;;5031020;28;20486;-77
2024/01/23 02:09:59;;;;;;;21.88;4.38;;;8.90;99.90;;;;;;5028622;28;20668;-77
2024/01/23 02:12:24;;;;;;;17.70;3.92;;;8.80;99.90;;;;;;5028575;28;20025;-77
2024/01/23 02:14:50;;;;;;;13.93;3.05;;;8.80;99.90;;;;;;5029372;28;20034;-76
2024/01/23 02:17:16;;;;;;;22.23;4.22;;;8.80;99.90;;;;;;5030294;28;20030;-77
2024/01/23 02:19:42;;;;;;;17.83;3.60;;;8.70;99.90;;;;;;5028295;28;21815;-77
2024/01/23 02:22:08;;;;;;;18.02;3.50;;;8.70;99.90;;;;;;5029978;28;20036;-77
2024/01/23 02:24:34;;;;;;;25.42;4.03;;;8.80;99.90;;;;;;5033649;28;20029;-76
2024/01/23 02:27:00;;;;;;;27.85;4.25;;;8.70;99.90;;;;;;5032597;28;20018;-77
2024/01/23 02:29:26;;;;;;;21.90;4.93;;;8.80;99.90;;;;;;5032039;28;20381;-77
2024/01/23 02:31:51;;;;;;;22.63;3.92;;;8.80;99.90;;;;;;5027808;28;20029;-76
2024/01/23 02:34:17;;;;;;;15.80;3.20;;;8.70;99.90;;;;;;5027658;28;20419;-76
2024/01/23 02:36:43;;;;;;;24.45;4.40;;;8.60;99.90;;;;;;5033947;28;20048;-77
2024/01/23 02:39:10;;;;;;;21.48;3.42;;;8.60;99.90;;;;;;5036429;28;20091;-77
2024/01/23 02:41:35;;;;;;;23.17;4.63;;;8.70;99.90;;;;;;5029939;28;20024;-77
2024/01/23 02:44:01;;;;;;;18.95;4.05;;;8.60;99.90;;;;;;5033762;28;20041;-77
2024/01/23 02:46:27;;;;;;;13.30;3.30;;;8.60;99.90;;;;;;5029063;28;20049;-77
2024/01/23 02:48:52;;;;;;;29.73;5.22;;;8.60;99.90;;;;;;5032222;28;20489;-77
2024/01/23 02:51:21;;;;;;;16.75;3.30;;;8.50;99.90;;;;;;5027980;28;20021;-77
2024/01/23 02:53:47;;;;;;;21.20;5.05;;;8.50;99.90;;;;;;5029734;28;20032;-77
2024/01/23 02:56:13;;;;;;;21.50;4.13;;;8.40;99.90;;;;;;5030185;28;20025;-77
2024/01/23 02:58:40;;;;;;;22.58;3.65;;;8.50;99.90;;;;;;5030135;28;20143;-77
2024/01/23 03:01:06;;;;;;;19.30;4.00;;;8.40;99.90;;;;;;5035172;28;20031;-77
2024/01/23 03:03:32;;;;;;;16.52;4.38;;;8.50;99.90;;;;;;5033556;28;20042;-77
2024/01/23 03:05:57;;;;;;;22.88;4.35;;;8.40;99.90;;;;;;5029648;28;20025;-76
2024/01/23 03:08:23;;;;;;;30.08;4.97;;;8.40;99.90;;;;;;5030547;28;20040;-77
2024/01/23 03:10:49;;;;;;;26.70;4.70;;;8.40;99.90;;;;;;5040235;28;20026;-76
2024/01/23 03:13:15;;;;;;;25.95;4.63;;;8.40;99.90;;;;;;5044517;28;20579;-76
2024/01/23 03:15:41;;;;;;;18.25;4.13;;;8.30;99.90;;;;;;5050646;28;20013;-77
2024/01/23 03:18:07;;;;;;;30.92;5.65;;;8.40;99.90;;;;;;5050819;28;20029;-77
2024/01/23 03:20:33;;;;;;;28.13;4.90;;;8.30;99.90;;;;;;5049148;28;20374;-77
2024/01/23 03:23:00;;;;;;;22.80;4.13;;;8.30;99.90;;;;;;5049447;28;20122;-77
2024/01/23 03:25:26;;;;;;;20.70;4.15;;;8.30;99.90;;;;;;5054127;28;20037;-77
2024/01/23 03:27:52;;;;;;;27.13;4.13;;;8.30;99.90;;;;;;5064149;28;20051;-76
2024/01/23 03:30:31;;;;;;;26.52;4.35;;;8.30;99.90;;;;;;5064113;28;20110;-76
2024/01/23 03:32:57;;;;;;;28.65;4.55;;;8.30;99.90;;;;;;5052383;28;20397;-77
2024/01/23 03:35:23;;;;;;;20.98;4.65;;;8.30;99.90;;;;;;5054281;28;20490;-77
2024/01/23 03:37:48;;;;;;;26.88;4.88;;;8.20;99.90;;;;;;5053973;28;20079;-77
2024/01/23 03:40:14;;;;;;;26.73;5.22;;;8.20;99.90;;;;;;5055548;28;20413;-77
2024/01/23 03:42:40;;;;;;;24.50;4.30;;;8.30;99.90;;;;;;5073828;28;20055;-76
2024/01/23 03:45:06;;;;;;;21.35;4.25;;;8.20;99.90;;;;;;5073090;28;20027;-77
2024/01/23 03:47:32;;;;;;;27.30;4.57;;;8.20;99.90;;;;;;5074566;28;20541;-76
2024/01/23 03:49:58;;;;;;;22.13;4.22;;;8.20;99.90;;;;;;5059163;28;20103;-77
2024/01/23 03:52:23;;;;;;;25.15;4.43;;;8.20;99.90;;;;;;5052568;28;20371;-76
2024/01/23 03:54:49;;;;;;;19.48;3.95;;;8.10;99.90;;;;;;5053888;28;20045;-76
2024/01/23 03:57:15;;;;;;;25.88;4.15;;;8.10;99.90;;;;;;5052311;28;20025;-76
2024/01/23 03:59:44;;;;;;;32.10;5.28;;;8.00;99.90;;;;;;5053578;28;20078;-76
2024/01/23 04:02:10;;;;;;;27.65;4.85;;;8.10;99.90;;;;;;5063497;28;20461;-76
2024/01/23 04:04:37;;;;;;;26.70;5.22;;;8.00;99.90;;;;;;5072654;28;20107;-77
2024/01/23 04:07:03;;;;;;;21.73;4.13;;;8.00;99.90;;;;;;5053565;28;20466;-76
2024/01/23 04:09:28;;;;;;;22.40;3.92;;;7.90;99.90;;;;;;5052487;28;20056;-77
2024/01/23 04:11:55;;;;;;;23.40;4.05;;;8.00;99.90;;;;;;5052443;28;20021;-77
2024/01/23 04:14:20;;;;;;;26.08;4.70;;;8.10;99.90;;;;;;5042551;28;20080;-77
2024/01/23 04:16:47;;;;;;;32.10;5.43;;;8.10;99.90;;;;;;5033553;28;20025;-76
2024/01/23 04:19:12;;;;;;;29.98;4.90;;;8.10;99.90;;;;;;5041057;28;20036;-77
2024/01/23 04:21:38;;;;;;;24.55;3.85;;;8.10;99.90;;;;;;5051905;28;20022;-76
2024/01/23 04:24:04;;;;;;;29.38;5.38;;;8.00;99.90;;;;;;5053901;28;20048;-77
2024/01/23 04:26:30;;;;;;;35.78;5.22;;;8.00;99.90;;;;;;5054123;28;20032;-77
2024/01/23 04:28:56;;;;;;;26.60;5.00;;;8.10;99.90;;;;;;5052894;28;20078;-76
2024/01/23 04:31:22;;;;;;;24.23;4.93;;;8.10;99.90;;;;;;5053424;28;20055;-77
2024/01/23 04:33:49;;;;;;;22.15;4.55;;;8.00;99.90;;;;;;5054062;28;20053;-77
2024/01/23 04:36:18;;;;;;;23.48;4.68;;;7.90;99.90;;;;;;5052526;28;20032;-77
2024/01/23 04:38:44;;;;;;;21.10;4.53;;;7.90;99.90;;;;;;5052940;28;20032;-77
2024/01/23 04:41:10;;;;;;;25.60;3.78;;;7.90;99.90;;;;;;5051978;28;20382;-77
2024/01/23 04:43:37;;;;;;;28.17;4.88;;;7.90;99.90;;;;;;5047444;28;20037;-76
2024/01/23 04:46:03;;;;;;;27.15;4.75;;;7.90;99.90;;;;;;5050976;28;20021;-76
2024/01/23 04:48:29;;;;;;;31.88;4.85;;;7.80;99.90;;;;;;5055289;28;20178;-77
2024/01/23 04:50:55;;;;;;;21.80;3.70;;;7.80;99.90;;;;;;5052666;28;20100;-77
2024/01/23 04:53:21;;;;;;;27.27;4.43;;;7.80;99.90;;;;;;5053588;28;20035;-77
2024/01/23 04:55:46;;;;;;;19.50;3.47;;;7.80;99.90;;;;;;5053321;28;20497;-77
2024/01/23 04:58:12;;;;;;;24.70;4.68;;;7.80;99.90;;;;;;5052679;28;20110;-77
2024/01/23 05:00:38;;;;;;;20.88;4.07;;;7.80;99.90;;;;;;5052280;28;20035;-77
2024/01/23 05:03:04;;;;;;;21.83;4.63;;;7.70;99.90;;;;;;5065810;28;20124;-77
2024/01/23 05:05:31;;;;;;;27.63;4.38;;;7.70;99.90;;;;;;5052601;28;20029;-77
2024/01/23 05:07:56;;;;;;;24.58;4.13;;;7.70;99.90;;;;;;5052762;28;20029;-76
2024/01/23 05:10:23;;;;;;;27.60;4.57;;;7.70;99.90;;;;;;5052199;28;20374;-77
2024/01/23 05:12:49;;;;;;;31.48;4.88;;;7.70;99.90;;;;;;5052784;28;20497;-76
2024/01/23 05:15:15;;;;;;;29.15;4.60;;;7.60;99.90;;;;;;5051702;28;20027;-76
2024/01/23 05:17:40;;;;;;;23.38;3.97;;;7.70;99.90;;;;;;5072589;28;20029;-76
2024/01/23 05:20:08;;;;;;;22.65;4.13;;;7.70;99.90;;;;;;5056043;28;20041;-74
2024/01/23 05:22:35;;;;;;;30.10;4.20;;;7.60;99.90;;;;;;5047623;28;20037;-76
2024/01/23 05:25:02;;;;;;;25.75;3.72;;;7.70;99.90;;;;;;5050068;28;20053;-74
2024/01/23 05:27:28;;;;;;;20.77;3.50;;;7.60;99.90;;;;;;5052813;28;20025;-76
2024/01/23 05:29:54;;;;;;;21.10;3.90;;;7.60;99.90;;;;;;5058150;28;20492;-76
2024/01/23 05:32:19;;;;;;;27.73;4.22;;;7.70;99.90;;;;;;5063359;28;20025;-76
2024/01/23 05:34:45;;;;;;;16.48;3.85;;;7.60;99.90;;;;;;5050572;28;20036;-77
2024/01/23 05:37:12;;;;;;;17.83;3.78;;;7.70;99.90;;;;;;5043712;28;20025;-76
2024/01/23 05:39:38;;;;;;;23.75;4.70;;;7.70;99.90;;;;;;5031478;28;20037;-76
2024/01/23 05:42:06;;;;;;;27.35;3.70;;;7.60;99.90;;;;;;5032019;28;20025;-77
2024/01/23 05:44:32;;;;;;;17.67;3.95;;;7.60;99.90;;;;;;5030981;28;20467;-76
2024/01/23 05:46:58;;;;;;;34.03;5.13;;;7.50;99.90;;;;;;5032695;28;20110;-75
2024/01/23 05:49:24;;;;;;;29.27;4.50;;;7.50;99.90;;;;;;5032621;28;20077;-76
2024/01/23 05:51:50;;;;;;;29.05;4.65;;;7.40;99.90;;;;;;5042983;28;20028;-76
2024/01/23 05:54:15;;;;;;;26.10;4.38;;;7.40;99.90;;;;;;5072693;28;20056;-76
2024/01/23 05:56:41;;;;;;;23.10;4.75;;;7.40;99.90;;;;;;5071600;28;20021;-77
2024/01/23 05:59:07;;;;;;;30.38;5.63;;;7.50;99.90;;;;;;5072211;28;20035;-76
2024/01/23 06:01:33;;;;;;;25.63;3.80;;;7.50;99.90;;;;;;5071757;28;20477;-77
2024/01/23 06:03:59;;;;;;;18.60;4.25;;;7.40;99.90;;;;;;5072227;28;20043;-77
2024/01/23 06:06:26;;;;;;;22.40;4.38;;;7.40;99.90;;;;;;5042815;28;20024;-76
2024/01/23 06:08:52;;;;;;;18.33;3.88;;;7.40;99.90;;;;;;5052308;28;20033;-76
2024/01/23 06:11:17;;;;;;;23.80;4.60;;;7.40;99.90;;;;;;5049210;28;20029;-75
2024/01/23 06:13:43;;;;;;;21.20;4.85;;;7.40;99.90;;;;;;5070960;28;20535;-76
2024/01/23 06:16:10;;;;;;;33.25;4.65;;;7.40;99.90;;;;;;5071592;28;20033;-77
2024/01/23 06:18:35;;;;;;;26.65;4.43;;;7.40;99.90;;;;;;5071881;28;20021;-75
2024/01/23 06:21:02;;;;;;;26.58;4.15;;;7.40;99.90;;;;;;5071186;28;20032;-77
2024/01/23 06:23:28;;;;;;;27.27;5.38;;;7.40;99.90;;;;;;5072007;28;20032;-76
2024/01/23 06:25:53;;;;;;;20.70;3.90;;;7.30;99.90;;;;;;5072333;28;20426;-76
2024/01/23 06:28:19;;;;;;;24.77;5.30;;;7.30;99.90;;;;;;5071840;28;20021;-76
2024/01/23 06:30:45;;;;;;;21.90;4.63;;;7.30;99.90;;;;;;5072401;28;20489;-76
2024/01/23 06:33:12;;;;;;;26.52;4.50;;;7.30;99.90;;;;;;5068068;28;20025;-76
2024/01/23 06:35:38;;;;;;;23.23;4.55;;;7.20;99.90;;;;;;5052110;28;20105;-77
2024/01/23 06:38:03;;;;;;;27.02;4.30;;;7.30;99.90;;;;;;5050987;28;20112;-76
2024/01/23 06:40:29;;;;;;;29.10;4.90;;;7.20;99.90;;;;;;5052215;28;20029;-75
2024/01/23 06:42:55;;;;;;;25.05;4.38;;;7.30;99.90;;;;;;5051135;28;20040;-75
2024/01/23 06:45:20;;;;;;;25.13;4.82;;;7.20;99.90;;;;;;5050215;28;20461;-76
2024/01/23 06:47:46;;;;;;;31.73;5.55;;;7.20;99.90;;;;;;5050621;28;20028;-76
2024/01/23 06:50:12;;;;;;;24.15;4.72;;;7.20;99.90;;;;;;5051840;28;20032;-76
2024/01/23 06:52:38;;;;;;;29.08;4.47;;;7.10;99.90;;;;;;5050279;28;20047;-76
2024/01/23 06:55:04;;;;;;;31.30;5.78;;;7.10;99.90;;;;;;5051215;28;20025;-76
2024/01/23 06:57:30;;;;;;;29.15;4.82;;;7.10;99.90;;;;;;5051776;28;20119;-76
2024/01/23 06:59:56;;;;;;;28.70;5.35;;;7.00;99.90;;;;;;5053240;28;20480;-76
2024/01/23 07:02:21;;;;;;;36.83;6.10;;;7.00;99.90;;;;;;5054792;28;20041;-76
2024/01/23 07:04:47;;;;;;;29.10;5.25;;;7.10;99.90;;;;;;5053876;28;20443;-76
2024/01/23 07:07:13;;;;;;;33.38;5.80;;;7.00;99.90;;;;;;5054365;28;20490;-76
2024/01/23 07:09:38;;;;;;;24.95;4.20;;;7.00;99.90;;;;;;5053139;28;20021;-76
2024/01/23 07:12:04;;;;;;;29.15;4.88;;;7.10;99.90;;;;;;5043421;28;20478;-76
2024/01/23 07:14:30;;;;;;;27.77;5.65;;;7.00;99.90;;;;;;5054409;28;20063;-76
2024/01/23 07:16:56;;;;;;;33.45;5.45;;;7.10;99.90;;;;;;5044412;28;20444;-76
2024/01/23 07:19:21;;;;;;;30.20;5.68;;;7.00;99.90;;;;;;5039983;28;20021;-75
2024/01/23 07:21:47;;;;;;;23.80;5.10;;;7.10;99.90;;;;;;5061095;28;20309;-76
2024/01/23 07:24:13;;;;;;;21.65;4.30;;;7.00;99.90;;;;;;5066744;28;20482;-76
2024/01/23 07:26:39;;;;;;;26.73;4.75;;;7.10;99.90;;;;;;5053401;28;20071;-76
2024/01/23 07:29:04;;;;;;;24.23;4.85;;;7.10;99.90;;;;;;5048014;28;20246;-76
2024/01/23 07:31:30;;;;;;;28.15;4.90;;;7.10;99.90;;;;;;5056198;28;20020;-76
2024/01/23 07:33:57;;;;;;;34.08;5.40;;;7.00;99.90;;;;;;5060835;28;20047;-76
2024/01/23 07:36:22;;;;;;;43.08;5.20;;;7.00;99.90;;;;;;5049217;28;20421;-76
2024/01/23 07:38:48;;;;;;;30.60;4.55;;;7.00;99.90;;;;;;5060940;28;20021;-76
2024/01/23 07:41:14;;;;;;;23.40;4.60;;;6.90;99.90;;;;;;5050834;28;20489;-76
2024/01/23 07:43:40;;;;;;;29.38;4.18;;;6.90;99.90;;;;;;5058965;28;20032;-75
2024/01/23 07:46:05;;;;;;;21.40;4.15;;;6.90;99.90;;;;;;5058143;28;20025;-76
2024/01/23 07:48:31;;;;;;;32.15;4.78;;;6.90;99.90;;;;;;5051031;28;20028;-76
2024/01/23 07:50:57;;;;;;;24.67;5.00;;;6.90;99.90;;;;;;5060754;28;20083;-76
2024/01/23 07:53:23;;;;;;;25.02;4.43;;;7.00;99.90;;;;;;5050326;28;20542;-75
2024/01/23 07:55:48;;;;;;;20.77;4.75;;;7.00;99.90;;;;;;5044681;28;20493;-75
2024/01/23 07:58:14;;;;;;;28.13;5.28;;;7.00;99.90;;;;;;5054052;28;20393;-76
2024/01/23 08:00:43;;;;;;;26.80;4.55;;;7.00;99.90;;;;;;5054968;28;20029;-75
2024/01/23 08:03:09;;;;;;;27.17;5.03;;;7.00;99.90;;;;;;5051370;28;20030;-76
2024/01/23 08:05:35;;;;;;;33.40;4.78;;;7.00;99.90;;;;;;5055395;28;20383;-75
2024/01/23 08:08:01;;;;;;;29.10;4.75;;;7.00;99.90;;;;;;5054773;28;20033;-75
2024/01/23 08:10:26;;;;;;;27.65;5.13;;;6.90;99.90;;;;;;5053383;28;20028;-75
2024/01/23 08:12:53;;;;;;;26.23;3.70;;;6.90;99.90;;;;;;5064641;28;20055;-76
2024/01/23 08:15:19;;;;;;;29.73;4.80;;;7.00;99.90;;;;;;5052960;28;20048;-75
2024/01/23 08:17:45;;;;;;;27.40;4.25;;;7.00;99.90;;;;;;5048687;28;20064;-75
2024/01/23 08:20:12;;;;;;;22.95;4.03;;;6.90;99.90;;;;;;5062410;28;20016;-75
2024/01/23 08:22:38;;;;;;;31.88;8.65;;;6.90;99.90;;;;;;5047799;28;20044;-75
2024/01/23 08:25:04;;;;;;;27.75;4.78;;;6.80;99.90;;;;;;5060521;28;20021;-76
2024/01/23 08:27:30;;;;;;;19.83;4.20;;;6.80;99.90;;;;;;5050081;28;20021;-74
2024/01/23 08:29:56;;;;;;;25.55;4.20;;;6.80;99.90;;;;;;5054596;28;20032;-75
2024/01/23 08:32:21;;;;;;;34.17;5.53;;;6.80;99.90;;;;;;5058232;28;20370;-75
2024/01/23 08:34:47;;;;;;;28.08;5.32;;;7.00;99.90;;;;;;5052628;28;20103;-76
2024/01/23 08:37:14;;;;;;;21.80;3.95;;;7.00;99.90;;;;;;5056708;28;20056;-76
2024/01/23 08:39:40;;;;;;;28.70;5.40;;;7.00;99.90;;;;;;5052426;28;20033;-75
2024/01/23 08:42:06;;;;;;;21.80;4.55;;;7.00;99.90;;;;;;5057320;28;20830;-75
2024/01/23 08:44:31;;;;;;;27.48;5.30;;;7.00;99.90;;;;;;5050366;28;20059;-75
2024/01/23 08:46:57;;;;;;;27.77;5.15;;;7.10;99.90;;;;;;5062237;28;20063;-76
2024/01/23 08:49:23;;;;;;;25.95;4.68;;;7.10;99.90;;;;;;5047763;28;20512;-76
2024/01/23 08:51:48;;;;;;;33.20;5.25;;;7.20;99.90;;;;;;5052886;28;20092;-76
2024/01/23 08:54:18;;;;;;;30.52;5.40;;;7.20;99.90;;;;;;5051446;28;20022;-75
2024/01/23 08:56:49;;;;;;;20.83;5.13;;;7.20;99.90;;;;;;5056471;28;20028;-75
2024/01/23 08:59:15;;;;;;;24.42;4.07;;;7.30;99.90;;;;;;5055999;28;20103;-76
2024/01/23 09:01:41;;;;;;;22.83;4.60;;;7.40;99.90;;;;;;5057974;28;20362;-76
2024/01/23 09:04:07;;;;;;;25.50;4.82;;;7.30;99.90;;;;;;5042592;28;20473;-76
2024/01/23 09:06:33;;;;;;;40.00;6.28;;;7.40;99.90;;;;;;5051644;28;20057;-76
2024/01/23 09:08:59;;;;;;;27.27;4.82;;;7.40;99.90;;;;;;5050764;28;20020;-77
2024/01/23 09:11:25;;;;;;;23.13;5.35;;;7.50;99.90;;;;;;5049436;28;20470;-78
2024/01/23 09:13:51;;;;;;;38.33;6.50;;;7.60;99.90;;;;;;5057884;28;20029;-78
2024/01/23 09:16:17;;;;;;;21.17;5.35;;;7.60;99.90;;;;;;5057603;28;20021;-79
2024/01/23 09:18:48;;;;;;;25.80;4.72;;;7.60;99.90;;;;;;5054421;28;20098;-80
2024/01/23 09:21:14;;;;;;;31.75;5.15;;;7.70;99.90;;;;;;5048412;28;20064;-79
2024/01/23 09:23:40;;;;;;;29.20;5.25;;;7.70;99.90;;;;;;5060101;28;20055;-77
2024/01/23 09:26:06;;;;;;;27.45;4.85;;;7.80;99.90;;;;;;5048870;28;20514;-78
2024/01/23 09:28:31;;;;;;;31.98;5.38;;;7.80;99.90;;;;;;5051516;28;20474;-80
2024/01/23 09:30:57;;;;;;;34.97;6.15;;;7.90;99.90;;;;;;5059120;28;20094;-77
2024/01/23 09:33:23;;;;;;;30.02;5.00;;;8.00;99.90;;;;;;5050867;28;20024;-75
2024/01/23 09:35:48;;;;;;;32.40;5.50;;;8.10;99.90;;;;;;5059311;28;20083;-77
2024/01/23 09:38:14;;;;;;;38.92;6.38;;;8.10;99.90;;;;;;5053424;28;20358;-76
2024/01/23 09:40:48;;;;;;;36.67;5.75;;;8.10;99.90;;;;;;5054862;28;20475;-77
2024/01/23 09:43:16;;;;;;;29.67;6.35;;;8.10;99.90;;;;;;5054160;28;20127;-76
2024/01/23 09:45:43;;;;;;;31.63;5.35;;;8.20;99.90;;;;;;5057106;28;20032;-75
2024/01/23 09:48:09;;;;;;;33.95;5.78;;;8.20;99.90;;;;;;5050388;28;20052;-76
2024/01/23 09:50:38;;;;;;;34.85;5.57;;;8.30;99.90;;;;;;5060076;28;20060;-75
2024/01/23 09:53:06;;;;;;;29.90;5.35;;;8.40;99.90;;;;;;5050317;28;20017;-75
2024/01/23 09:55:32;;;;;;;28.15;6.45;;;8.40;99.90;;;;;;5059330;28;20032;-74
2024/01/23 09:57:58;;;;;;;32.95;5.88;;;8.50;99.90;;;;;;5045990;28;20386;-75
2024/01/23 10:00:24;;;;;;;34.08;5.63;;;8.50;99.90;;;;;;5060331;28;20020;-75
2024/01/23 10:02:50;;;;;;;30.17;5.78;;;8.60;99.90;;;;;;5046468;28;20537;-75
2024/01/23 10:05:16;;;;;;;32.13;5.90;;;8.60;99.90;;;;;;5052584;28;20074;-75
2024/01/23 10:07:42;;;;;;;30.95;4.95;;;8.70;99.90;;;;;;5059214;28;20092;-75
2024/01/23 10:10:17;;;;;;;31.67;5.20;;;8.80;99.90;;;;;;5049380;28;20021;-75
2024/01/23 10:12:45;;;;;;;29.77;6.03;;;8.90;99.90;;;;;;5052077;28;20024;-75
2024/01/23 10:15:14;;;;;;;24.92;4.70;;;8.90;99.90;;;;;;5051504;28;20013;-75
2024/01/23 10:17:40;;;;;;;34.33;6.07;;;9.10;99.90;;;;;;5045626;28;20024;-75
2024/01/23 10:20:08;;;;;;;29.92;4.57;;;9.10;99.90;;;;;;5052646;28;20025;-77
2024/01/23 10:22:34;;;;;;;24.60;5.20;;;9.10;99.90;;;;;;5061386;28;20116;-77
2024/01/23 10:25:13;;;;;;;25.73;5.53;;;9.20;99.90;;;;;;5054739;28;20445;-74
2024/01/23 10:27:39;;;;;;;26.20;5.28;;;9.10;99.90;;;;;;5056819;28;20029;-75
2024/01/23 10:30:06;;;;;;;30.67;6.05;;;9.20;99.90;;;;;;5050201;28;20030;-76
2024/01/23 10:32:32;;;;;;;32.03;5.75;;;9.30;99.90;;;;;;5057598;28;20032;-75
2024/01/23 10:34:58;;;;;;;35.03;5.68;;;9.30;99.90;;;;;;5048680;28;20068;-77
2024/01/23 10:37:24;;;;;;;32.47;5.55;;;9.40;99.90;;;;;;5064076;28;20634;-76
2024/01/23 10:39:51;;;;;;;31.17;5.93;;;9.40;99.90;;;;;;5055744;28;20113;-75
2024/01/23 10:42:18;;;;;;;34.60;6.00;;;9.50;99.90;;;;;;5052967;28;20030;-76
2024/01/23 10:44:50;;;;;;;24.50;5.32;;;9.50;99.90;;;;;;5059480;28;20024;-76
2024/01/23 10:47:18;;;;;;;35.72;6.13;;;9.50;99.90;;;;;;5054836;28;20020;-75
2024/01/23 10:49:45;;;;;;;32.72;6.90;;;9.40;99.90;;;;;;5061580;28;20033;-76
2024/01/23 10:52:20;;;;;;;37.70;6.85;;;9.40;99.90;;;;;;5059335;28;20021;-75
2024/01/23 10:54:53;;;;;;;34.50;5.85;;;9.50;99.90;;;;;;5056288;28;21063;-75
2024/01/23 10:57:23;;;;;;;31.38;5.75;;;9.50;99.90;;;;;;5054399;28;20025;-74
2024/01/23 10:59:49;;;;;;;27.85;5.85;;;9.40;99.90;;;;;;5062493;28;20728;-74
2024/01/23 11:02:28;;;;;;;30.00;6.15;;;9.50;99.90;;;;;;5052028;28;20045;-74
2024/01/23 11:04:54;;;;;;;27.92;4.68;;;9.50;99.90;;;;;;5056018;28;20036;-74
2024/01/23 11:07:30;;;;;;;27.17;5.22;;;9.50;99.90;;;;;;5061591;28;20023;-74
2024/01/23 11:10:06;;;;;;;28.23;5.72;;;9.60;99.90;;;;;;5037948;28;20033;-74
2024/01/23 11:12:54;;;;;;;29.25;4.93;;;9.60;99.90;;;;;;5031167;28;20448;-74
2024/01/23 11:15:20;;;;;;;26.15;5.80;;;9.70;99.90;;;;;;5035883;28;20379;-75
2024/01/23 11:17:47;;;;;;;32.53;5.38;;;9.70;99.90;;;;;;5035422;28;20059;-80
2024/01/23 11:20:16;;;;;;;34.20;5.68;;;9.70;99.90;;;;;;5034776;28;20029;-76
2024/01/23 11:22:42;;;;;;;26.48;6.03;;;9.80;99.90;;;;;;5042132;28;20045;-75
2024/01/23 11:25:12;;;;;;;27.50;5.38;;;9.80;99.90;;;;;;5040318;28;20036;-76
2024/01/23 11:27:39;;;;;;;27.15;6.25;;;9.80;99.90;;;;;;5036251;28;20030;-76
2024/01/23 11:30:11;;;;;;;34.35;6.28;;;9.90;99.90;;;;;;5037152;28;20052;-75
2024/01/23 11:32:37;;;;;;;46.40;6.55;;;9.90;99.90;;;;;;5036952;28;20026;-74
2024/01/23 11:35:05;;;;;;;31.55;6.25;;;9.90;99.90;;;;;;5032301;28;20029;-74
2024/01/23 11:38:02;;;;;;;33.80;6.68;;;9.90;99.90;;;;;;5041615;28;20025;-77
2024/01/23 11:40:34;;;;;;;38.75;7.47;;;9.90;99.90;;;;;;5038574;28;20102;-77
2024/01/23 11:43:04;;;;;;;39.90;7.30;;;10.00;99.90;;;;;;5037083;28;20104;-76
2024/01/23 11:45:35;;;;;;;34.67;6.55;;;10.00;99.90;;;;;;5038270;28;20513;-74
2024/01/23 11:48:03;;;;;;;29.10;5.78;;;10.10;99.90;;;;;;5037091;28;20053;-74
2024/01/23 11:50:30;;;;;;;33.85;6.55;;;10.10;99.90;;;;;;5032621;28;20123;-85
2024/01/23 11:52:58;;;;;;;33.03;7.03;;;10.10;99.90;;;;;;5040748;28;20028;-78
2024/01/23 11:55:25;;;;;;;45.15;7.60;;;10.10;99.90;;;;;;5038288;28;20124;-77
2024/01/23 11:57:56;;;;;;;33.05;6.68;;;10.20;99.90;;;;;;5037576;28;20092;-78
2024/01/23 12:00:22;;;;;;;38.17;6.38;;;10.20;99.90;;;;;;5040330;28;20060;-77
2024/01/23 12:02:49;;;;;;;45.10;7.45;;;10.20;99.90;;;;;;5037013;28;20025;-77
2024/01/23 12:05:16;;;;;;;40.03;6.53;;;10.30;99.90;;;;;;5037581;28;20562;-78
2024/01/23 12:07:42;;;;;;;37.67;7.32;;;10.30;99.90;;;;;;5037225;28;20032;-77
2024/01/23 12:10:19;;;;;;;41.40;13.27;;;10.30;99.90;;;;;;5037487;28;20029;-78
2024/01/23 12:12:45;;;;;;;37.33;7.00;;;10.20;99.90;;;;;;5034249;28;20021;-76
2024/01/23 12:15:10;;;;;;;37.95;7.68;;;10.20;99.90;;;;;;5038652;28;20034;-77
2024/01/23 12:17:43;;;;;;;36.22;7.68;;;10.20;99.90;;;;;;5038792;28;20020;-78
2024/01/23 12:20:09;;;;;;;40.00;7.32;;;10.20;99.90;;;;;;5036758;28;20113;-78
2024/01/23 12:22:39;;;;;;;36.35;7.13;;;10.20;99.90;;;;;;5037284;28;20109;-77
2024/01/23 12:25:06;;;;;;;35.05;7.30;;;10.20;99.90;;;;;;5039143;28;20037;-77
2024/01/23 12:27:32;;;;;;;45.67;7.35;;;10.10;99.90;;;;;;5037846;28;20042;-78
2024/01/23 12:29:59;;;;;;;42.10;7.75;;;10.10;99.90;;;;;;5038127;28;20445;-76
2024/01/23 12:32:31;;;;;;;42.05;8.07;;;10.20;99.90;;;;;;5036659;28;20067;-78
2024/01/23 12:34:58;;;;;;;45.92;7.50;;;10.30;99.90;;;;;;5035604;28;20021;-78
2024/01/23 12:37:31;;;;;;;41.38;9.65;;;10.30;99.90;;;;;;5042592;28;20104;-77
2024/01/23 12:40:07;;;;;;;42.30;7.82;;;10.30;99.90;;;;;;5036204;28;20025;-74
2024/01/23 12:42:33;;;;;;;35.33;7.72;;;10.40;99.90;;;;;;5039150;28;20593;-75